Time;durP1;ratioP1;P1;durP2;ratioP2;P2;SDS_P1;SDS_P2;PMS_P1;PMS_P2;Temp;Humidity;BMP_temperature;BMP_pressure;BME280_temperature;BME280_humidity;BME280_pressure;Samples;Min_cycle;Max_cycle;Signal;HPM_P1;HPM_P2
2023/01/02 00:00:22;;;;;;;3.50;2.40;;;15.80;71.70;;;;;;927892;153;27291;-75
2023/01/02 00:02:48;;;;;;;4.25;2.45;;;15.80;71.60;;;;;;927319;151;27380;-76
2023/01/02 00:05:15;;;;;;;3.98;2.50;;;15.80;71.60;;;;;;922859;152;27441;-77
2023/01/02 00:07:42;;;;;;;4.30;2.77;;;15.80;71.50;;;;;;926768;153;27340;-76
2023/01/02 00:10:08;;;;;;;5.55;3.67;;;15.70;71.50;;;;;;927589;153;27405;-76
2023/01/02 00:12:35;;;;;;;3.62;3.02;;;15.70;71.50;;;;;;924497;154;27375;-75
2023/01/02 00:15:01;;;;;;;4.83;2.40;;;15.70;71.50;;;;;;942258;150;27451;-75
2023/01/02 00:17:28;;;;;;;4.40;2.55;;;15.70;71.50;;;;;;928306;154;27388;-77
2023/01/02 00:19:55;;;;;;;3.20;2.90;;;15.70;71.50;;;;;;927433;153;27297;-76
2023/01/02 00:22:21;;;;;;;4.42;2.60;;;15.60;71.50;;;;;;924541;151;27477;-77
2023/01/02 00:24:48;;;;;;;4.33;3.65;;;15.60;71.50;;;;;;931573;151;27322;-76
2023/01/02 00:27:14;;;;;;;2.60;2.40;;;15.60;71.50;;;;;;927976;151;27797;-77
2023/01/02 00:29:41;;;;;;;3.10;2.42;;;15.60;71.60;;;;;;931969;152;27744;-76
2023/01/02 00:32:08;;;;;;;3.92;2.70;;;15.60;71.60;;;;;;917256;155;27383;-76
2023/01/02 00:34:34;;;;;;;3.98;2.50;;;15.60;71.70;;;;;;933770;152;27291;-77
2023/01/02 00:37:01;;;;;;;3.70;2.77;;;15.50;71.70;;;;;;918331;155;27359;-76
2023/01/02 00:39:27;;;;;;;4.87;2.52;;;15.50;71.70;;;;;;929608;153;27336;-77
2023/01/02 00:41:54;;;;;;;3.15;2.45;;;15.50;71.70;;;;;;929174;151;27455;-77
2023/01/02 00:44:20;;;;;;;4.90;2.58;;;15.50;71.70;;;;;;927775;151;27344;-77
2023/01/02 00:46:47;;;;;;;3.10;2.80;;;15.50;71.80;;;;;;927482;151;27351;-76
2023/01/02 00:49:14;;;;;;;4.17;2.12;;;15.40;71.70;;;;;;928819;151;27348;-77
2023/01/02 00:51:40;;;;;;;3.65;2.75;;;15.40;71.70;;;;;;929222;151;27376;-77
2023/01/02 00:54:07;;;;;;;2.45;2.25;;;15.40;71.70;;;;;;925936;151;27457;-77
2023/01/02 00:56:33;;;;;;;2.40;2.10;;;15.40;71.60;;;;;;929060;153;27309;-77
2023/01/02 00:59:00;;;;;;;4.37;2.67;;;15.30;71.50;;;;;;926329;151;27368;-76
2023/01/02 01:01:27;;;;;;;3.33;2.30;;;15.30;71.50;;;;;;929144;153;27362;-77
2023/01/02 01:03:53;;;;;;;3.95;2.42;;;15.20;71.50;;;;;;927577;151;27364;-78
2023/01/02 01:06:22;;;;;;;3.05;2.30;;;15.20;71.50;;;;;;927593;151;27869;-78
2023/01/02 01:08:46;;;;;;;3.83;2.50;;;15.10;72.20;;;;;;926406;153;27596;-78
2023/01/02 01:11:13;;;;;;;3.47;2.72;;;15.10;71.50;;;;;;928727;151;28211;-78
2023/01/02 01:13:40;;;;;;;3.12;2.40;;;15.00;71.50;;;;;;926526;151;27365;-78
2023/01/02 01:16:06;;;;;;;4.55;3.20;;;14.90;71.60;;;;;;928952;153;27418;-78
2023/01/02 01:18:33;;;;;;;3.37;2.70;;;14.80;71.60;;;;;;927748;153;27390;-78
2023/01/02 01:20:59;;;;;;;4.55;2.35;;;14.70;71.70;;;;;;928563;151;27299;-78
2023/01/02 01:23:26;;;;;;;4.75;2.50;;;14.60;71.80;;;;;;932364;149;27478;-78
2023/01/02 01:25:52;;;;;;;4.75;2.55;;;14.50;71.90;;;;;;938126;152;27450;-78
2023/01/02 01:28:19;;;;;;;4.08;2.60;;;14.50;72.10;;;;;;937399;149;28365;-78
2023/01/02 01:30:46;;;;;;;3.75;2.22;;;14.40;72.10;;;;;;937015;152;27331;-78
2023/01/02 01:33:12;;;;;;;3.30;2.10;;;14.40;72.20;;;;;;922933;152;27369;-77
2023/01/02 01:35:39;;;;;;;2.83;2.30;;;14.30;72.40;;;;;;924233;152;27447;-77
2023/01/02 01:38:05;;;;;;;4.55;2.37;;;14.20;72.50;;;;;;924032;154;27979;-77
2023/01/02 01:40:38;;;;;;;4.27;2.20;;;14.20;72.50;;;;;;923195;154;27253;-77
2023/01/02 01:43:05;;;;;;;2.75;2.40;;;14.10;72.70;;;;;;938014;152;27358;-77
2023/01/02 01:45:33;;;;;;;4.30;2.10;;;14.00;72.70;;;;;;936332;149;27861;-76
2023/01/02 01:47:58;;;;;;;3.67;2.07;;;14.00;72.90;;;;;;939038;152;27390;-77
2023/01/02 01:50:24;;;;;;;3.03;2.40;;;13.90;72.90;;;;;;937616;152;27380;-77
2023/01/02 01:52:57;;;;;;;4.40;2.02;;;13.90;73.10;;;;;;938125;152;27330;-76
2023/01/02 01:55:23;;;;;;;2.93;2.00;;;13.80;73.20;;;;;;923634;154;27353;-75
2023/01/02 01:57:53;;;;;;;3.93;2.50;;;13.80;73.30;;;;;;921577;152;27472;-75
2023/01/02 02:00:19;;;;;;;3.10;2.30;;;13.80;73.60;;;;;;938277;152;27322;-76
2023/01/02 02:02:46;;;;;;;2.77;2.53;;;13.80;73.70;;;;;;937778;152;27390;-77
2023/01/02 02:05:12;;;;;;;3.60;2.50;;;13.80;73.80;;;;;;919807;152;27342;-76
2023/01/02 02:07:39;;;;;;;5.03;2.37;;;13.80;74.00;;;;;;925937;152;27395;-77
2023/01/02 02:10:05;;;;;;;4.37;2.80;;;13.80;74.10;;;;;;921997;154;27557;-76
2023/01/02 02:12:32;;;;;;;2.75;2.40;;;13.80;74.10;;;;;;921347;154;27477;-76
2023/01/02 02:14:59;;;;;;;5.03;2.60;;;13.90;74.20;;;;;;922661;154;27371;-77
2023/01/02 02:17:35;;;;;;;3.67;2.60;;;13.90;74.20;;;;;;936750;152;27266;-76
2023/01/02 02:20:09;;;;;;;5.50;2.10;;;13.90;74.20;;;;;;922671;154;27402;-76
2023/01/02 02:23:01;;;;;;;3.73;2.23;;;14.00;74.40;;;;;;921083;152;27381;-77
2023/01/02 02:25:42;;;;;;;2.90;2.27;;;13.90;74.10;;;;;;921999;154;27360;-77
2023/01/02 02:28:24;;;;;;;3.17;2.30;;;14.00;74.20;;;;;;937669;149;27261;-80
2023/01/02 02:31:00;;;;;;;6.65;2.20;;;14.00;74.20;;;;;;939522;151;27346;-79
2023/01/02 02:33:48;;;;;;;4.37;2.50;;;14.00;74.10;;;;;;939935;152;27345;-78
2023/01/02 02:36:17;;;;;;;3.62;2.12;;;14.00;74.20;;;;;;936779;152;27870;-78
2023/01/02 02:38:49;;;;;;;2.08;1.90;;;14.00;74.10;;;;;;939386;152;27430;-77
2023/01/02 02:41:31;;;;;;;5.03;2.37;;;14.00;74.10;;;;;;922642;154;27790;-76
2023/01/02 02:44:06;;;;;;;3.22;2.00;;;14.00;74.20;;;;;;922054;154;27366;-77
2023/01/02 02:46:38;;;;;;;2.87;2.40;;;14.00;74.10;;;;;;903723;154;27756;-77
2023/01/02 02:49:07;;;;;;;3.80;2.15;;;14.00;74.10;;;;;;940258;152;27341;-78
2023/01/02 02:51:52;;;;;;;3.80;2.30;;;14.00;74.20;;;;;;919647;154;27522;-78
2023/01/02 02:54:25;;;;;;;2.75;1.95;;;14.00;74.10;;;;;;937874;149;27373;-78
2023/01/02 02:56:51;;;;;;;2.47;2.27;;;14.10;74.10;;;;;;912963;154;28339;-78
2023/01/02 02:59:18;;;;;;;3.33;1.82;;;14.10;74.90;;;;;;922444;154;27344;-77
2023/01/02 03:01:44;;;;;;;3.15;2.37;;;14.10;74.20;;;;;;938475;152;27312;-75
2023/01/02 03:04:17;;;;;;;5.85;2.20;;;14.10;74.10;;;;;;926676;152;27389;-75
2023/01/02 03:06:44;;;;;;;3.50;2.20;;;14.10;74.10;;;;;;938841;152;27388;-78
2023/01/02 03:09:22;;;;;;;3.00;2.25;;;14.10;74.20;;;;;;916303;155;27883;-77
2023/01/02 03:11:54;;;;;;;3.40;2.08;;;14.20;74.10;;;;;;938321;152;27297;-77
2023/01/02 03:14:21;;;;;;;3.50;2.30;;;14.20;74.20;;;;;;908541;149;27384;-77
2023/01/02 03:16:48;;;;;;;3.58;2.05;;;14.20;74.20;;;;;;937393;152;28490;-77
2023/01/02 03:19:14;;;;;;;2.72;2.30;;;14.30;74.40;;;;;;937601;152;27317;-77
2023/01/02 03:21:47;;;;;;;3.40;2.30;;;14.30;74.20;;;;;;939509;152;28258;-78
2023/01/02 03:24:13;;;;;;;3.35;2.10;;;14.30;74.30;;;;;;921420;154;27514;-77
2023/01/02 03:26:40;;;;;;;2.40;2.05;;;14.30;74.10;;;;;;923165;154;27350;-77
2023/01/02 03:29:07;;;;;;;3.87;2.10;;;14.30;74.00;;;;;;925519;154;27292;-77
2023/01/02 03:31:33;;;;;;;3.95;2.35;;;14.30;74.00;;;;;;922566;153;27414;-76
2023/01/02 03:34:00;;;;;;;2.83;2.60;;;14.30;74.00;;;;;;925806;153;27399;-76
2023/01/02 03:36:26;;;;;;;2.45;2.17;;;14.30;74.10;;;;;;920810;153;27344;-76
2023/01/02 03:39:08;;;;;;;4.28;2.37;;;14.30;74.00;;;;;;927026;154;27419;-76
2023/01/02 03:41:37;;;;;;;4.10;2.42;;;14.30;73.90;;;;;;927867;154;27370;-76
2023/01/02 03:44:04;;;;;;;2.90;2.40;;;14.30;73.90;;;;;;933111;152;27352;-77
2023/01/02 03:46:52;;;;;;;4.00;2.33;;;14.30;73.90;;;;;;934834;151;27403;-77
2023/01/02 03:49:22;;;;;;;2.17;1.98;;;14.40;73.90;;;;;;918320;154;27492;-77
2023/01/02 03:51:48;;;;;;;5.37;2.42;;;14.40;73.90;;;;;;912555;156;27394;-77
2023/01/02 03:54:15;;;;;;;2.67;2.47;;;14.40;74.10;;;;;;927849;154;27315;-79
2023/01/02 03:56:57;;;;;;;3.55;2.20;;;14.40;74.00;;;;;;922728;154;27933;-80
2023/01/02 03:59:23;;;;;;;3.62;2.00;;;14.50;73.90;;;;;;926555;154;27335;-78
2023/01/02 04:01:55;;;;;;;3.55;2.33;;;14.50;73.90;;;;;;934899;151;27358;-79
2023/01/02 04:04:22;;;;;;;2.30;2.10;;;14.50;74.10;;;;;;931539;151;27677;-79
2023/01/02 04:06:48;;;;;;;6.42;2.42;;;14.50;73.80;;;;;;919568;155;27366;-79
2023/01/02 04:09:18;;;;;;;3.72;3.22;;;14.50;73.70;;;;;;920598;153;27351;-80
2023/01/02 04:11:45;;;;;;;3.58;2.00;;;14.60;73.70;;;;;;933815;152;27438;-79
2023/01/02 04:14:17;;;;;;;4.83;2.08;;;14.50;73.60;;;;;;918059;155;27401;-79
2023/01/02 04:16:44;;;;;;;3.72;2.20;;;14.50;73.60;;;;;;932835;152;27439;-80
2023/01/02 04:19:13;;;;;;;2.60;2.25;;;14.50;73.60;;;;;;933588;152;27297;-77
2023/01/02 04:21:40;;;;;;;4.17;2.10;;;14.50;73.50;;;;;;932731;152;27367;-79
2023/01/02 04:24:13;;;;;;;3.20;2.17;;;14.50;73.60;;;;;;923058;154;27382;-80
2023/01/02 04:26:42;;;;;;;2.55;2.22;;;14.50;73.60;;;;;;936612;152;27485;-78
2023/01/02 04:29:08;;;;;;;3.45;2.02;;;14.50;73.50;;;;;;916508;155;27363;-78
2023/01/02 04:31:37;;;;;;;4.12;2.27;;;14.50;73.60;;;;;;923788;154;27373;-78
2023/01/02 04:34:04;;;;;;;3.13;2.23;;;14.50;73.60;;;;;;921845;154;27363;-78
2023/01/02 04:36:31;;;;;;;2.67;2.20;;;14.50;73.50;;;;;;938492;152;27362;-78
2023/01/02 04:38:57;;;;;;;3.92;2.42;;;14.40;73.50;;;;;;935873;152;27439;-80
2023/01/02 04:41:25;;;;;;;3.50;2.30;;;14.40;73.50;;;;;;936936;152;27471;-79
2023/01/02 04:43:50;;;;;;;5.20;2.60;;;14.40;73.50;;;;;;921521;154;27439;-79
2023/01/02 04:46:17;;;;;;;4.87;2.87;;;14.40;73.60;;;;;;923922;154;27335;-79
2023/01/02 04:48:44;;;;;;;2.67;2.00;;;14.40;73.60;;;;;;924816;152;27357;-78
2023/01/02 04:51:10;;;;;;;3.08;2.20;;;14.40;73.70;;;;;;938681;149;27301;-79
2023/01/02 04:53:37;;;;;;;2.83;2.08;;;14.30;73.60;;;;;;920932;153;27408;-80
2023/01/02 04:56:03;;;;;;;2.62;2.08;;;14.30;73.80;;;;;;937932;152;27518;-79
2023/01/02 04:58:30;;;;;;;2.42;1.90;;;14.30;73.80;;;;;;939817;152;27329;-77
2023/01/02 05:00:56;;;;;;;2.50;1.90;;;14.30;73.80;;;;;;923557;154;27265;-79
2023/01/02 05:03:23;;;;;;;2.27;2.05;;;14.30;73.80;;;;;;937840;149;27430;-79
2023/01/02 05:05:50;;;;;;;2.27;2.02;;;14.30;73.80;;;;;;931208;153;27370;-77
2023/01/02 05:08:16;;;;;;;4.35;2.40;;;14.30;73.80;;;;;;937318;152;27360;-79
2023/01/02 05:10:43;;;;;;;2.52;2.10;;;14.30;73.80;;;;;;936143;152;27302;-79
2023/01/02 05:13:09;;;;;;;6.08;2.22;;;14.40;73.80;;;;;;934875;152;27440;-79
2023/01/02 05:15:36;;;;;;;2.85;1.80;;;14.40;73.80;;;;;;939159;149;27365;-79
2023/01/02 05:18:03;;;;;;;2.27;2.08;;;14.40;73.80;;;;;;922324;152;27517;-80
2023/01/02 05:20:29;;;;;;;2.10;1.80;;;14.40;73.80;;;;;;938147;152;27824;-78
2023/01/02 05:25:41;;;;;;;2.95;2.10;;;14.40;73.90;;;;;;937457;149;27377;-79
2023/01/02 05:28:07;;;;;;;2.98;2.33;;;14.40;73.90;;;;;;935172;152;27395;-80
2023/01/02 05:30:34;;;;;;;3.60;2.20;;;14.40;73.90;;;;;;933994;152;27251;-80
2023/01/02 05:33:00;;;;;;;6.03;2.30;;;14.40;73.90;;;;;;928678;152;27337;-79
2023/01/02 05:35:27;;;;;;;2.95;2.40;;;14.40;73.90;;;;;;915592;155;27458;-81
2023/01/02 05:37:53;;;;;;;2.80;1.93;;;14.40;73.90;;;;;;917139;155;27353;-79
2023/01/02 05:40:20;;;;;;;2.58;2.00;;;14.30;73.80;;;;;;935159;152;27358;-81
2023/01/02 05:42:47;;;;;;;3.05;1.85;;;14.30;73.80;;;;;;932751;152;27451;-81
2023/01/02 05:45:13;;;;;;;2.37;2.17;;;14.30;73.70;;;;;;933942;151;27314;-80
2023/01/02 05:47:40;;;;;;;2.45;1.80;;;14.30;73.60;;;;;;934263;152;27329;-79
2023/01/02 05:50:07;;;;;;;2.55;2.22;;;14.30;73.70;;;;;;927288;152;27367;-79
2023/01/02 05:52:33;;;;;;;4.35;2.52;;;14.40;73.80;;;;;;932621;152;27358;-81
2023/01/02 05:55:00;;;;;;;4.20;2.42;;;14.30;73.80;;;;;;919028;153;27357;-80
2023/01/02 05:57:26;;;;;;;2.73;2.00;;;14.30;73.70;;;;;;924160;154;27263;-80
2023/01/02 05:59:53;;;;;;;3.37;2.10;;;14.30;73.60;;;;;;933173;151;27456;-79
2023/01/02 06:02:20;;;;;;;4.33;2.42;;;14.30;73.70;;;;;;931315;152;27402;-80
2023/01/02 06:04:46;;;;;;;4.65;2.47;;;14.30;73.80;;;;;;919333;152;27478;-81
2023/01/02 06:07:13;;;;;;;2.60;2.12;;;14.30;73.90;;;;;;935751;152;27473;-80
2023/01/02 06:09:39;;;;;;;4.47;2.00;;;14.20;73.90;;;;;;928831;151;27399;-79
2023/01/02 06:12:06;;;;;;;2.40;2.20;;;14.20;73.90;;;;;;929611;151;27360;-80
2023/01/02 06:14:32;;;;;;;3.07;2.10;;;14.20;74.10;;;;;;919660;153;27793;-80
2023/01/02 06:16:59;;;;;;;3.58;2.08;;;14.20;74.10;;;;;;905972;157;27380;-80
2023/01/02 06:19:26;;;;;;;3.10;2.00;;;14.10;74.10;;;;;;906996;155;27486;-80
2023/01/02 06:21:52;;;;;;;2.30;2.10;;;14.10;74.10;;;;;;919048;154;27384;-77
2023/01/02 06:24:19;;;;;;;3.70;2.37;;;14.20;74.20;;;;;;933053;151;27404;-79
2023/01/02 06:26:45;;;;;;;2.90;2.00;;;14.10;74.20;;;;;;936379;152;27416;-78
2023/01/02 06:29:12;;;;;;;3.15;2.17;;;14.10;74.30;;;;;;915706;155;27382;-79
2023/01/02 06:31:39;;;;;;;4.75;2.22;;;14.10;74.40;;;;;;937609;152;27334;-79
2023/01/02 06:34:05;;;;;;;3.87;1.98;;;14.10;74.40;;;;;;927787;152;27389;-77
2023/01/02 06:36:32;;;;;;;2.92;2.02;;;14.10;74.30;;;;;;938071;152;27375;-80
2023/01/02 06:38:58;;;;;;;3.97;2.30;;;14.10;74.30;;;;;;939278;152;27337;-81
2023/01/02 06:41:25;;;;;;;2.52;1.98;;;14.00;74.30;;;;;;923713;154;27379;-81
2023/01/02 06:43:52;;;;;;;3.92;2.12;;;14.10;74.40;;;;;;939727;151;27701;-81
2023/01/02 06:46:18;;;;;;;3.30;2.42;;;14.10;74.40;;;;;;924382;154;27362;-79
2023/01/02 06:48:45;;;;;;;2.22;1.92;;;14.10;74.40;;;;;;930831;153;27493;-81
2023/01/02 06:51:11;;;;;;;6.92;2.87;;;14.10;74.60;;;;;;923053;154;27393;-81
2023/01/02 06:53:38;;;;;;;3.83;2.30;;;14.10;74.50;;;;;;916897;155;27362;-82
2023/01/02 06:56:04;;;;;;;3.47;2.67;;;14.10;74.60;;;;;;921199;154;27472;-79
2023/01/02 06:58:31;;;;;;;4.17;2.00;;;14.10;74.60;;;;;;940187;152;27405;-81
2023/01/02 07:01:03;;;;;;;3.37;2.10;;;14.10;74.60;;;;;;938973;152;27270;-80
2023/01/02 07:03:30;;;;;;;2.20;2.00;;;14.10;74.70;;;;;;937997;149;27317;-82
2023/01/02 07:05:59;;;;;;;3.47;2.10;;;14.10;74.60;;;;;;938640;152;27357;-80
2023/01/02 07:08:26;;;;;;;2.47;2.10;;;14.10;74.60;;;;;;930021;152;27480;-81
2023/01/02 07:10:52;;;;;;;6.70;2.70;;;14.10;74.60;;;;;;937330;152;28487;-82
2023/01/02 07:13:19;;;;;;;3.77;2.27;;;14.10;74.70;;;;;;937774;152;27373;-82
2023/01/02 07:15:46;;;;;;;2.10;1.90;;;14.10;74.60;;;;;;921850;152;27200;-81
2023/01/02 07:18:12;;;;;;;3.35;2.33;;;14.10;74.60;;;;;;938629;149;27439;-79
2023/01/02 07:20:39;;;;;;;2.37;1.85;;;14.10;74.60;;;;;;937708;151;27450;-80
2023/01/02 07:23:05;;;;;;;2.80;2.45;;;14.10;74.60;;;;;;921785;154;27517;-81
2023/01/02 07:25:32;;;;;;;5.62;2.55;;;14.10;74.60;;;;;;938027;149;27351;-80
2023/01/02 07:27:59;;;;;;;3.70;2.15;;;14.10;74.60;;;;;;922878;152;27475;-80
2023/01/02 07:30:25;;;;;;;3.10;2.40;;;14.10;74.50;;;;;;937922;152;27352;-82
2023/01/02 07:32:52;;;;;;;2.58;1.90;;;14.10;74.50;;;;;;922684;154;27419;-81
2023/01/02 07:35:18;;;;;;;4.35;2.15;;;14.20;74.60;;;;;;927883;154;27415;-81
2023/01/02 07:37:45;;;;;;;2.17;1.90;;;14.20;74.50;;;;;;927893;153;27421;-80
2023/01/02 07:40:11;;;;;;;2.62;2.37;;;14.20;74.50;;;;;;939435;151;27381;-79
2023/01/02 07:42:38;;;;;;;2.72;2.37;;;14.20;74.40;;;;;;938654;152;27374;-81
2023/01/02 07:45:05;;;;;;;4.70;2.37;;;14.20;74.30;;;;;;938728;149;27373;-79
2023/01/02 07:47:31;;;;;;;2.47;2.20;;;14.20;74.20;;;;;;937790;151;27342;-79
2023/01/02 07:49:58;;;;;;;4.73;2.53;;;14.20;74.10;;;;;;936656;152;27423;-79
2023/01/02 07:52:25;;;;;;;6.57;3.17;;;14.30;74.20;;;;;;938723;152;27468;-79
2023/01/02 07:54:51;;;;;;;2.37;2.17;;;14.30;74.20;;;;;;937658;149;27372;-81
2023/01/02 07:57:18;;;;;;;6.55;2.47;;;14.30;74.10;;;;;;924478;154;27339;-81
2023/01/02 07:59:45;;;;;;;2.27;2.08;;;14.30;74.10;;;;;;930904;152;27381;-80
2023/01/02 08:02:11;;;;;;;2.30;2.10;;;14.40;74.10;;;;;;937420;152;27302;-80
2023/01/02 08:04:37;;;;;;;3.40;2.12;;;14.40;74.00;;;;;;936457;151;27361;-82
2023/01/02 08:07:04;;;;;;;3.47;2.12;;;14.50;73.90;;;;;;927047;152;27337;-79
2023/01/02 08:09:31;;;;;;;4.37;2.27;;;14.50;73.80;;;;;;939201;152;27367;-81
2023/01/02 08:11:57;;;;;;;4.40;2.35;;;14.60;73.70;;;;;;923681;152;27373;-80
2023/01/02 08:14:24;;;;;;;4.97;2.47;;;14.60;73.50;;;;;;939309;149;27358;-82
2023/01/02 08:16:50;;;;;;;5.62;2.35;;;14.60;73.40;;;;;;939181;151;27349;-82
2023/01/02 08:19:17;;;;;;;3.85;2.05;;;14.70;73.30;;;;;;938063;152;27347;-82
2023/01/02 08:21:44;;;;;;;6.53;2.98;;;14.70;73.20;;;;;;939020;152;27395;-81
2023/01/02 08:24:10;;;;;;;6.30;1.87;;;14.70;73.00;;;;;;933054;151;27398;-79
2023/01/02 08:26:37;;;;;;;5.53;1.90;;;14.80;73.00;;;;;;920605;154;27393;-82
2023/01/02 08:29:03;;;;;;;4.80;2.17;;;14.90;72.90;;;;;;938956;149;28083;-81
2023/01/02 08:31:30;;;;;;;2.17;1.57;;;14.90;72.50;;;;;;922008;154;27533;-80
2023/01/02 08:33:57;;;;;;;5.92;1.80;;;15.00;72.10;;;;;;937938;149;27354;-80
2023/01/02 08:36:23;;;;;;;3.80;1.70;;;15.20;72.20;;;;;;927650;153;27461;-79
2023/01/02 08:38:50;;;;;;;6.33;2.22;;;15.30;72.80;;;;;;936714;152;28548;-81
2023/01/02 08:41:31;;;;;;;7.28;2.25;;;15.40;71.80;;;;;;937978;152;27327;-82
2023/01/02 08:43:58;;;;;;;6.33;2.10;;;15.60;70.70;;;;;;936864;151;27262;-81
2023/01/02 08:46:24;;;;;;;4.00;2.20;;;15.70;70.50;;;;;;926866;153;27381;-79
2023/01/02 08:48:51;;;;;;;5.65;2.45;;;15.90;70.40;;;;;;922303;152;27404;-81
2023/01/02 08:51:18;;;;;;;7.00;2.37;;;16.10;70.20;;;;;;937399;152;27389;-80
2023/01/02 08:53:44;;;;;;;7.45;2.40;;;16.20;71.00;;;;;;939954;152;27446;-80
2023/01/02 08:56:17;;;;;;;4.72;2.08;;;16.40;69.70;;;;;;923653;154;27422;-80
2023/01/02 08:58:43;;;;;;;5.35;2.30;;;16.50;69.20;;;;;;938586;152;27448;-79
2023/01/02 09:01:10;;;;;;;5.10;2.17;;;16.60;68.60;;;;;;939949;152;27489;-81
2023/01/02 09:03:36;;;;;;;9.03;2.47;;;16.80;68.20;;;;;;923196;152;27355;-82
2023/01/02 09:06:03;;;;;;;4.45;2.17;;;16.90;67.80;;;;;;940773;152;27354;-80
2023/01/02 09:08:30;;;;;;;6.95;2.33;;;17.00;66.90;;;;;;939248;152;27362;-79
2023/01/02 09:10:56;;;;;;;6.42;2.08;;;17.10;67.40;;;;;;923253;154;27382;-81
2023/01/02 09:13:23;;;;;;;7.22;3.02;;;17.20;66.00;;;;;;937826;149;27330;-81
2023/01/02 09:15:49;;;;;;;6.92;2.00;;;17.20;65.80;;;;;;924599;154;27408;-81
2023/01/02 09:18:16;;;;;;;4.35;2.12;;;17.40;66.50;;;;;;939466;151;27436;-81
2023/01/02 09:20:43;;;;;;;3.62;1.72;;;17.40;65.70;;;;;;938696;152;27358;-82
2023/01/02 09:23:09;;;;;;;7.80;2.55;;;17.50;65.40;;;;;;937892;149;27515;-81
2023/01/02 09:25:36;;;;;;;4.42;1.70;;;17.50;65.40;;;;;;939950;149;27428;-80
2023/01/02 09:28:02;;;;;;;7.65;2.10;;;17.60;65.30;;;;;;927314;152;27384;-80
2023/01/02 09:30:31;;;;;;;5.17;1.80;;;17.60;65.00;;;;;;921237;154;27380;-79
2023/01/02 09:32:56;;;;;;;6.42;2.35;;;17.70;64.80;;;;;;928209;152;27492;-81
2023/01/02 09:35:22;;;;;;;4.05;2.08;;;17.70;64.90;;;;;;935721;152;27346;-81
2023/01/02 09:37:49;;;;;;;5.25;1.70;;;17.80;64.30;;;;;;938132;151;27383;-80
2023/01/02 09:40:15;;;;;;;6.55;2.00;;;17.80;64.20;;;;;;938589;152;27298;-80
2023/01/02 09:42:42;;;;;;;2.25;1.65;;;17.80;63.80;;;;;;925546;154;27476;-81
2023/01/02 09:45:08;;;;;;;3.80;1.80;;;17.80;63.70;;;;;;924023;154;27525;-81
2023/01/02 09:47:35;;;;;;;4.42;1.82;;;17.90;63.50;;;;;;923330;154;27463;-82
2023/01/02 09:50:04;;;;;;;4.37;1.95;;;17.90;62.70;;;;;;938292;152;27422;-80
2023/01/02 09:52:40;;;;;;;7.42;1.70;;;17.90;62.90;;;;;;923055;154;27479;-82
2023/01/02 09:55:15;;;;;;;4.47;1.75;;;17.90;63.40;;;;;;937433;149;27356;-80
2023/01/02 09:57:57;;;;;;;3.75;1.80;;;18.00;62.50;;;;;;939007;152;27365;-81
2023/01/02 10:00:25;;;;;;;2.70;1.70;;;18.10;62.50;;;;;;937719;152;27360;-80
2023/01/02 10:03:10;;;;;;;3.52;1.87;;;18.10;63.10;;;;;;920796;154;27416;-80
2023/01/02 10:05:47;;;;;;;4.58;1.70;;;18.10;63.00;;;;;;937965;149;27765;-81
2023/01/02 10:08:41;;;;;;;2.70;1.92;;;18.20;62.70;;;;;;937088;152;27425;-82
2023/01/02 10:11:20;;;;;;;3.65;1.67;;;18.20;62.80;;;;;;884030;160;27466;-82
2023/01/02 10:13:49;;;;;;;6.75;2.30;;;18.30;63.20;;;;;;884215;160;27478;-79
2023/01/02 10:16:18;;;;;;;7.80;3.42;;;18.30;62.60;;;;;;909533;152;27396;-82
2023/01/02 10:18:45;;;;;;;4.35;1.90;;;18.40;62.30;;;;;;922934;154;27309;-82
2023/01/02 10:21:14;;;;;;;4.25;2.02;;;18.50;62.40;;;;;;916409;155;27431;-82
2023/01/02 10:23:50;;;;;;;6.33;2.35;;;18.50;62.10;;;;;;924162;154;27327;-81
2023/01/02 10:26:17;;;;;;;4.45;2.62;;;18.50;62.60;;;;;;938051;152;27365;-81
2023/01/02 10:29:04;;;;;;;3.62;1.70;;;18.60;62.20;;;;;;937472;152;27273;-80
2023/01/02 10:31:31;;;;;;;2.75;1.67;;;18.70;61.00;;;;;;929490;152;27357;-82
2023/01/02 10:33:58;;;;;;;2.22;1.50;;;18.70;62.00;;;;;;927247;152;27383;-81
2023/01/02 10:36:25;;;;;;;2.62;1.67;;;18.80;62.10;;;;;;933342;152;27446;-81
2023/01/02 10:38:51;;;;;;;3.12;1.62;;;18.90;61.80;;;;;;921960;153;28048;-80
2023/01/02 10:41:17;;;;;;;8.13;2.25;;;18.90;61.70;;;;;;933057;152;27355;-81
2023/01/02 10:43:44;;;;;;;4.75;2.33;;;18.90;61.80;;;;;;934138;152;27361;-82
2023/01/02 10:46:11;;;;;;;4.37;2.05;;;19.00;62.00;;;;;;932210;152;27394;-82
2023/01/02 10:48:37;;;;;;;4.85;1.82;;;18.90;62.20;;;;;;918366;155;27348;-80
2023/01/02 10:51:04;;;;;;;9.08;2.77;;;18.90;62.40;;;;;;933262;151;27404;-82
2023/01/02 10:53:33;;;;;;;7.12;2.62;;;18.90;62.40;;;;;;932197;152;27366;-81
2023/01/02 10:56:02;;;;;;;4.95;2.72;;;18.80;62.70;;;;;;922213;155;27445;-81
2023/01/02 10:58:29;;;;;;;4.20;2.80;;;18.70;62.90;;;;;;927684;152;27306;-78
2023/01/02 11:01:17;;;;;;;5.25;2.55;;;18.70;63.30;;;;;;929212;153;27359;-81
2023/01/02 11:03:37;;;;;;;4.22;2.37;;;18.60;63.60;;;;;;916347;154;27360;-81
2023/01/02 11:06:04;;;;;;;7.05;2.65;;;18.50;63.40;;;;;;933649;152;27358;-82
2023/01/02 11:08:36;;;;;;;4.90;2.33;;;18.40;65.20;;;;;;922695;155;27438;-81
2023/01/02 11:11:03;;;;;;;4.55;2.65;;;18.30;64.00;;;;;;921240;155;27353;-82
2023/01/02 11:13:29;;;;;;;4.05;2.12;;;18.20;64.90;;;;;;916782;152;27361;-82
2023/01/02 11:15:56;;;;;;;3.50;1.70;;;18.10;65.30;;;;;;931072;152;27424;-81
2023/01/02 11:18:25;;;;;;;3.65;1.92;;;18.00;65.40;;;;;;919222;153;27356;-81
2023/01/02 11:20:52;;;;;;;4.05;1.85;;;18.00;65.70;;;;;;934610;151;27482;-82
2023/01/02 11:23:18;;;;;;;5.03;1.90;;;17.80;65.70;;;;;;922474;154;27351;-81
2023/01/02 11:25:46;;;;;;;5.58;2.40;;;17.70;66.00;;;;;;927698;151;27384;-81
2023/01/02 11:28:23;;;;;;;7.22;2.55;;;17.70;66.30;;;;;;917340;154;27192;-81
2023/01/02 11:30:50;;;;;;;4.85;1.80;;;17.60;66.50;;;;;;920255;152;27416;-82
2023/01/02 11:33:31;;;;;;;5.12;2.40;;;17.50;66.70;;;;;;920808;154;28219;-82
2023/01/02 11:35:58;;;;;;;4.92;2.65;;;17.40;67.00;;;;;;921797;154;27289;-83
2023/01/02 11:38:27;;;;;;;2.50;2.10;;;17.30;67.10;;;;;;921757;152;27436;-82
2023/01/02 11:40:53;;;;;;;3.00;1.92;;;17.30;67.40;;;;;;923375;154;27386;-83
2023/01/02 11:46:09;;;;;;;4.95;1.95;;;17.20;68.00;;;;;;937835;149;27364;-79
2023/01/02 11:48:31;;;;;;;3.45;1.82;;;17.20;68.30;;;;;;930377;152;27455;-79
2023/01/02 11:50:58;;;;;;;3.87;1.80;;;17.10;68.50;;;;;;938369;152;27450;-81
2023/01/02 11:53:27;;;;;;;3.05;2.00;;;17.10;69.20;;;;;;924265;152;27395;-83
2023/01/02 11:56:09;;;;;;;4.58;2.02;;;17.00;69.40;;;;;;916767;155;27333;-84
2023/01/02 11:58:47;;;;;;;3.27;1.50;;;17.00;69.60;;;;;;918655;154;27404;-83
2023/01/02 12:01:22;;;;;;;5.62;1.98;;;17.00;69.90;;;;;;923514;154;27537;-83
2023/01/02 12:03:49;;;;;;;2.95;1.70;;;17.00;69.70;;;;;;937585;152;27380;-80
2023/01/02 12:06:16;;;;;;;3.22;1.80;;;16.90;69.80;;;;;;923957;152;27287;-83
2023/01/02 12:09:03;;;;;;;4.22;1.87;;;16.90;70.20;;;;;;919854;152;27356;-79
2023/01/02 12:11:32;;;;;;;7.42;2.47;;;16.80;70.50;;;;;;939752;152;27357;-78
2023/01/02 12:14:14;;;;;;;3.98;2.20;;;16.70;70.70;;;;;;917576;155;27349;-79
2023/01/02 12:16:56;;;;;;;2.27;1.70;;;16.70;71.20;;;;;;922926;154;27278;-77
2023/01/02 12:19:49;;;;;;;2.15;1.75;;;16.60;71.40;;;;;;922232;154;27422;-77
2023/01/02 12:22:31;;;;;;;5.55;1.90;;;16.50;71.70;;;;;;912885;152;27567;-80
2023/01/02 12:25:18;;;;;;;4.50;2.10;;;16.40;72.10;;;;;;937939;152;27368;-80
2023/01/02 12:28:07;;;;;;;5.08;2.27;;;16.30;72.60;;;;;;938065;152;27330;-79
2023/01/02 12:30:33;;;;;;;6.20;2.20;;;16.10;72.90;;;;;;936396;152;27390;-81
2023/01/02 12:33:12;;;;;;;3.70;1.87;;;16.00;73.50;;;;;;921945;152;27389;-79
2023/01/02 12:35:39;;;;;;;3.33;2.60;;;15.90;73.80;;;;;;926249;154;27391;-78
2023/01/02 12:38:08;;;;;;;3.65;2.02;;;15.80;74.40;;;;;;901360;154;27384;-80
2023/01/02 12:40:55;;;;;;;4.95;3.20;;;15.70;75.50;;;;;;925577;154;27874;-79
2023/01/02 12:43:28;;;;;;;5.30;3.62;;;15.60;75.20;;;;;;935287;152;27304;-79
2023/01/02 12:46:00;;;;;;;3.62;2.52;;;15.50;75.30;;;;;;915927;155;27392;-78
2023/01/02 12:49:04;;;;;;;3.72;2.20;;;15.50;75.90;;;;;;917358;152;27399;-79
2023/01/02 12:51:46;;;;;;;4.37;2.17;;;15.40;76.20;;;;;;915873;154;27472;-79
2023/01/02 12:54:36;;;;;;;4.83;2.22;;;15.30;76.40;;;;;;882604;161;27513;-79
2023/01/02 12:57:31;;;;;;;4.85;2.10;;;15.30;76.80;;;;;;919817;154;27329;-79
2023/01/02 13:00:00;;;;;;;3.67;2.00;;;15.20;77.30;;;;;;909088;151;27416;-79
2023/01/02 13:02:48;;;;;;;3.10;1.92;;;15.20;77.50;;;;;;933007;150;27691;-79